createdAt,value
2023-02-13T00:01:05.905Z,104007.47
2023-02-13T00:03:32.419Z,104006.56
2023-02-13T00:05:58.869Z,104003.06
2023-02-13T00:08:25.288Z,104012.44
2023-02-13T00:10:51.776Z,104007.34
2023-02-13T00:13:18.316Z,103999.69
2023-02-13T00:15:44.867Z,104003.13
2023-02-13T00:18:11.586Z,104003.88
2023-02-13T00:20:40.781Z,103999.63
2023-02-13T00:23:07.347Z,103999.53
2023-02-13T00:25:33.842Z,103993.59
2023-02-13T00:28:00.317Z,103990.91
2023-02-13T00:30:26.804Z,103996.88
2023-02-13T00:32:53.319Z,103985.81
2023-02-13T00:35:19.736Z,103988.31
2023-02-13T00:37:46.227Z,103984.06
2023-02-13T00:40:12.945Z,103989.84
2023-02-13T00:42:39.458Z,103989.81
2023-02-13T00:45:06.122Z,103984.72
2023-02-13T00:47:32.633Z,103994.09
2023-02-13T00:49:59.147Z,103987.38
2023-02-13T00:52:25.819Z,103979.66
2023-02-13T00:54:52.240Z,103979.66
2023-02-13T00:57:18.702Z,103980.56
2023-02-13T00:59:45.167Z,103976.31
2023-02-13T01:02:11.781Z,103976.28
2023-02-13T01:04:38.311Z,103982.28
2023-02-13T01:07:04.816Z,103979.72
2023-02-13T01:09:31.507Z,103983.97
2023-02-13T01:11:58.122Z,103985.59
2023-02-13T01:14:24.578Z,103982.97
2023-02-13T01:16:50.995Z,103985.53
2023-02-13T01:19:19.719Z,103982.13
2023-02-13T01:21:46.303Z,103988.94
2023-02-13T01:24:12.777Z,103988.91
2023-02-13T01:26:39.222Z,103981.19
2023-02-13T01:29:05.865Z,103984.59
2023-02-13T01:31:32.663Z,103980.31
2023-02-13T01:33:59.900Z,103981.19
2023-02-13T01:36:27.056Z,103971.69
2023-02-13T01:38:56.082Z,103978.53
2023-02-13T01:41:23.990Z,103976.03
2023-02-13T01:43:54.334Z,103970.03
2023-02-13T01:46:43.088Z,103974.22
2023-02-13T01:49:15.518Z,103963.19
2023-02-13T01:51:43.153Z,103969.13
2023-02-13T01:54:16.525Z,103970.03
2023-02-13T01:56:48.892Z,103962.34
2023-02-13T01:59:19.988Z,103969.97
2023-02-13T02:01:47.310Z,103964.88
2023-02-13T02:04:20.100Z,103958.06
2023-02-13T02:06:51.592Z,103959.72
2023-02-13T02:09:22.391Z,103957.91
2023-02-13T02:12:10.148Z,103954.47
2023-02-13T02:14:37.735Z,103956.13
2023-02-13T02:17:04.220Z,103953.56
2023-02-13T02:19:47.488Z,103951.88
2023-02-13T02:22:38.409Z,103949.41
2023-02-13T02:25:35.890Z,103955.38
2023-02-13T02:28:24.195Z,103952.00
2023-02-13T02:31:27.687Z,103955.31
2023-02-13T02:34:21.294Z,103954.41
2023-02-13T02:37:11.136Z,103958.66
2023-02-13T02:40:00.677Z,103953.56
2023-02-13T02:42:36.826Z,103950.22
2023-02-13T02:45:50.153Z,103954.56
2023-02-13T02:48:44.812Z,103953.66
2023-02-13T02:51:35.821Z,103948.47
2023-02-13T02:54:51.315Z,103951.91
2023-02-13T02:57:25.192Z,103945.88
2023-02-13T03:00:12.133Z,103943.38
2023-02-13T03:02:57.495Z,103944.28
2023-02-13T03:05:51.944Z,103942.59
2023-02-13T03:08:41.502Z,103940.00
2023-02-13T03:11:28.350Z,103939.13
2023-02-13T03:13:57.276Z,103945.13
2023-02-13T03:16:44.027Z,103943.38
2023-02-13T03:19:36.545Z,103944.22
2023-02-13T03:22:22.846Z,103945.03
2023-02-13T03:24:52.307Z,103948.47
2023-02-13T03:28:07.348Z,103948.47
2023-02-13T03:31:25.196Z,103953.47
2023-02-13T03:34:12.358Z,103945.88
2023-02-13T03:37:08.220Z,103946.81
2023-02-13T03:39:44.613Z,103946.88
2023-02-13T03:42:30.846Z,103947.63
2023-02-13T03:45:52.916Z,103936.53
2023-02-13T03:49:05.301Z,103947.56
2023-02-13T03:51:34.384Z,103945.03
2023-02-13T03:54:05.359Z,103934.84
2023-02-13T03:56:53.411Z,103945.06
2023-02-13T03:59:26.068Z,103942.53
2023-02-13T04:02:01.477Z,103948.56
2023-02-13T04:04:36.745Z,103945.28
2023-02-13T04:07:05.133Z,103946.97
2023-02-13T04:09:36.316Z,103936.78
2023-02-13T04:12:20.743Z,103937.63
2023-02-13T04:14:58.273Z,103938.44
2023-02-13T04:17:34.086Z,103932.41
2023-02-13T04:20:00.733Z,103940.19
2023-02-13T04:22:27.314Z,103941.03
2023-02-13T04:24:53.862Z,103946.13
2023-02-13T04:27:20.362Z,103938.47
2023-02-13T04:29:46.838Z,103939.28
2023-02-13T04:32:14.929Z,103945.31
2023-02-13T04:34:41.353Z,103933.34
2023-02-13T04:37:07.814Z,103937.63
2023-02-13T04:39:34.701Z,103940.97
2023-02-13T04:42:01.208Z,103939.28
2023-02-13T04:44:27.600Z,103933.38
2023-02-13T04:46:54.019Z,103935.09
2023-02-13T04:49:20.713Z,103940.22
2023-02-13T04:51:47.371Z,103938.47
2023-02-13T04:54:13.904Z,103934.19
2023-02-13T04:56:40.369Z,103931.66
2023-02-13T04:59:06.856Z,103928.25
2023-02-13T05:01:33.598Z,103926.44
2023-02-13T05:04:00.103Z,103924.75
2023-02-13T05:06:26.573Z,103923.97
2023-02-13T05:08:53.047Z,103913.78
2023-02-13T05:11:19.661Z,103912.78
2023-02-13T05:13:46.096Z,103909.38
2023-02-13T05:16:12.577Z,103915.34
2023-02-13T05:18:39.109Z,103911.13
2023-02-13T05:21:24.545Z,103909.44
2023-02-13T05:23:50.970Z,103912.72
2023-02-13T05:26:17.396Z,103903.34
2023-02-13T05:29:02.110Z,103905.91
2023-02-13T05:31:28.700Z,103906.78
2023-02-13T05:33:55.193Z,103906.78
2023-02-13T05:36:21.602Z,103905.97
2023-02-13T05:38:48.038Z,103906.78
2023-02-13T05:41:14.622Z,103903.31
2023-02-13T05:43:41.103Z,103909.34
2023-02-13T05:46:09.696Z,103908.53
2023-02-13T05:48:36.380Z,103906.72
2023-02-13T05:51:02.882Z,103912.63
2023-02-13T05:53:29.917Z,103906.72
2023-02-13T05:55:56.807Z,103909.28
2023-02-13T05:58:23.586Z,103903.25
2023-02-13T06:00:50.073Z,103911.69
2023-02-13T06:03:16.815Z,103906.66
2023-02-13T06:05:43.370Z,103899.09
2023-02-13T06:08:09.773Z,103904.25
2023-02-13T06:10:36.290Z,103909.28
2023-02-13T06:13:02.930Z,103905.78
2023-02-13T06:15:29.474Z,103905.91
2023-02-13T06:17:56.048Z,103906.84
2023-02-13T06:20:22.495Z,103904.28
2023-02-13T06:22:52.011Z,103901.69
2023-02-13T06:25:19.401Z,103905.16
2023-02-13T06:27:45.892Z,103909.38
2023-02-13T06:30:12.881Z,103911.00
2023-02-13T06:32:39.454Z,103911.81
2023-02-13T06:35:06.497Z,103909.34
2023-02-13T06:37:33.464Z,103911.94
2023-02-13T06:40:00.051Z,103919.63
2023-02-13T06:42:26.743Z,103919.66
2023-02-13T06:44:53.798Z,103922.16
2023-02-13T06:47:20.289Z,103918.72
2023-02-13T06:49:46.710Z,103915.34
2023-02-13T06:52:13.391Z,103921.31
2023-02-13T06:54:47.224Z,103913.72
2023-02-13T06:57:15.261Z,103919.66
2023-02-13T06:59:42.122Z,103918.06
2023-02-13T07:02:13.129Z,103924.91
2023-02-13T07:04:39.940Z,103922.41
2023-02-13T07:07:06.550Z,103930.84
2023-02-13T07:09:33.143Z,103934.25
2023-02-13T07:12:03.816Z,103930.03
2023-02-13T07:14:30.313Z,103925.84
2023-02-13T07:16:57.289Z,103930.09
2023-02-13T07:19:36.003Z,103937.78
2023-02-13T07:22:02.764Z,103937.88
2023-02-13T07:24:29.295Z,103937.09
2023-02-13T07:26:55.903Z,103933.69
2023-02-13T07:29:22.494Z,103926.91
2023-02-13T07:31:49.165Z,103920.13
2023-02-13T07:34:15.814Z,103919.38
2023-02-13T07:36:42.490Z,103922.03
2023-02-13T07:39:09.153Z,103922.88
2023-02-13T07:41:35.813Z,103926.31
2023-02-13T07:44:02.355Z,103931.47
2023-02-13T07:46:28.848Z,103931.50
2023-02-13T07:48:59.468Z,103931.56
2023-02-13T07:51:26.037Z,103926.53
2023-02-13T07:53:52.731Z,103934.41
2023-02-13T07:56:19.492Z,103941.34
2023-02-13T07:58:46.229Z,103938.78
2023-02-13T08:01:15.348Z,103949.97
2023-02-13T08:03:42.196Z,103944.97
2023-02-13T08:06:09.966Z,103949.31
2023-02-13T08:08:38.464Z,103958.84
2023-02-13T08:11:32.499Z,103951.38
2023-02-13T08:13:59.024Z,103958.25
2023-02-13T08:16:25.570Z,103970.34
2023-02-13T08:18:52.042Z,103961.97
2023-02-13T08:21:18.554Z,103973.16
2023-02-13T08:23:45.082Z,103973.34
2023-02-13T08:26:11.803Z,103964.91
2023-02-13T08:28:38.500Z,103965.94
2023-02-13T08:31:11.956Z,103968.69
2023-02-13T08:33:39.717Z,103963.69
2023-02-13T08:36:06.721Z,103961.34
2023-02-13T08:38:33.660Z,103970.03
2023-02-13T08:41:00.354Z,103963.44
2023-02-13T08:43:26.784Z,103956.00
2023-02-13T08:45:53.366Z,103964.59
2023-02-13T08:48:19.896Z,103964.81
2023-02-13T08:50:46.281Z,103961.66
2023-02-13T08:53:12.747Z,103961.03
2023-02-13T08:55:39.146Z,103966.38
2023-02-13T08:58:06.171Z,103964.78
2023-02-13T09:00:32.922Z,103958.03
2023-02-13T09:03:03.876Z,103960.81
2023-02-13T09:05:31.833Z,103965.25
2023-02-13T09:08:03.626Z,103961.97
2023-02-13T09:10:31.422Z,103962.13
2023-02-13T09:12:58.302Z,103964.75
2023-02-13T09:15:24.869Z,103965.72
2023-02-13T09:17:51.403Z,103954.84
2023-02-13T09:20:17.997Z,103967.66
2023-02-13T09:22:44.736Z,103965.22
2023-02-13T09:25:11.324Z,103966.06
2023-02-13T09:27:39.456Z,103970.47
2023-02-13T09:30:10.391Z,103965.44
2023-02-13T09:32:37.816Z,103959.56
2023-02-13T09:35:06.682Z,103957.94
2023-02-13T09:38:32.691Z,103957.31
2023-02-13T09:41:32.348Z,103954.31
2023-02-13T09:44:34.889Z,103958.06
2023-02-13T09:47:22.972Z,103943.88
2023-02-13T09:49:54.184Z,103954.66
2023-02-13T09:52:21.380Z,103950.44
2023-02-13T09:54:47.857Z,103950.50
2023-02-13T09:57:31.690Z,103955.44
2023-02-13T10:00:04.525Z,103958.81
2023-02-13T10:02:34.186Z,103952.50
2023-02-13T10:05:31.025Z,103956.44
2023-02-13T10:08:19.450Z,103954.13
2023-02-13T10:11:03.965Z,103953.53
2023-02-13T10:13:45.725Z,103956.94
2023-02-13T10:16:22.249Z,103951.03
2023-02-13T10:18:56.031Z,103952.78
2023-02-13T10:21:30.033Z,103952.63
2023-02-13T10:24:11.961Z,103955.97
2023-02-13T10:26:45.431Z,103957.13
2023-02-13T10:29:44.804Z,103954.13
2023-02-13T10:32:18.930Z,103947.63
2023-02-13T10:34:46.941Z,103945.91
2023-02-13T10:37:20.111Z,103941.81
2023-02-13T10:39:50.242Z,103936.13
2023-02-13T10:42:41.686Z,103937.03
2023-02-13T10:45:22.131Z,103944.78
2023-02-13T10:48:00.631Z,103930.41
2023-02-13T10:50:42.122Z,103928.88
2023-02-13T10:53:17.983Z,103932.50
2023-02-13T10:55:56.081Z,103929.94
2023-02-13T10:58:27.133Z,103929.31
2023-02-13T11:00:56.196Z,103930.34
2023-02-13T11:03:26.601Z,103934.69
2023-02-13T11:05:54.350Z,103923.69
2023-02-13T11:08:33.647Z,103922.72
2023-02-13T11:11:00.680Z,103921.88
2023-02-13T11:13:30.055Z,103924.31
2023-02-13T11:16:05.129Z,103919.00
2023-02-13T11:18:37.930Z,103912.22
2023-02-13T11:21:18.535Z,103909.06
2023-02-13T11:23:53.597Z,103911.91
2023-02-13T11:26:34.709Z,103906.88
2023-02-13T11:29:06.018Z,103900.19
2023-02-13T11:31:35.109Z,103902.59
2023-02-13T11:34:24.599Z,103899.78
2023-02-13T11:37:14.119Z,103896.56
2023-02-13T11:39:41.754Z,103897.78
2023-02-13T11:42:20.970Z,103886.75
2023-02-13T11:44:53.986Z,103885.06
2023-02-13T11:47:40.671Z,103886.09
2023-02-13T11:50:24.819Z,103882.84
2023-02-13T11:53:01.300Z,103882.19
2023-02-13T11:55:35.542Z,103875.38
2023-02-13T11:58:25.834Z,103874.53
2023-02-13T12:01:12.118Z,103866.91
2023-02-13T12:03:41.188Z,103862.56
2023-02-13T12:06:18.475Z,103850.72
2023-02-13T12:08:49.159Z,103862.53
2023-02-13T12:11:50.991Z,103860.63
2023-02-13T12:14:22.988Z,103852.19
2023-02-13T12:17:05.807Z,103848.97
2023-02-13T12:19:44.708Z,103850.03
2023-02-13T12:22:20.998Z,103851.06
2023-02-13T12:24:47.546Z,103845.22
2023-02-13T12:27:35.053Z,103850.34
2023-02-13T12:30:19.586Z,103846.00
2023-02-13T12:33:11.875Z,103845.94
2023-02-13T12:35:52.420Z,103850.34
2023-02-13T12:38:56.482Z,103843.66
2023-02-13T12:41:43.435Z,103850.69
2023-02-13T12:44:25.042Z,103843.00
2023-02-13T12:47:17.637Z,103836.84
2023-02-13T12:50:10.952Z,103836.09
2023-02-13T12:53:04.808Z,103835.41
2023-02-13T12:56:03.182Z,103830.34
2023-02-13T12:58:51.849Z,103830.19
2023-02-13T13:01:30.172Z,103830.34
2023-02-13T13:04:20.875Z,103826.06
2023-02-13T13:06:47.312Z,103820.00
2023-02-13T13:09:34.105Z,103811.50
2023-02-13T13:12:06.155Z,103808.13
2023-02-13T13:14:52.557Z,103802.97
2023-02-13T13:17:43.088Z,103803.03
2023-02-13T13:20:40.726Z,103799.53
2023-02-13T13:23:32.619Z,103797.09
2023-02-13T13:26:04.209Z,103797.03
2023-02-13T13:28:38.444Z,103790.22
2023-02-13T13:31:06.027Z,103789.38
2023-02-13T13:33:35.265Z,103783.34
2023-02-13T13:36:15.017Z,103778.25
2023-02-13T13:38:52.122Z,103777.25
2023-02-13T13:41:35.395Z,103772.16
2023-02-13T13:44:28.527Z,103773.94
2023-02-13T13:47:16.212Z,103768.00
2023-02-13T13:49:53.949Z,103767.16
2023-02-13T13:52:33.043Z,103765.47
2023-02-13T13:55:02.660Z,103762.88
2023-02-13T13:57:41.416Z,103760.28
2023-02-13T14:00:14.004Z,103761.94
2023-02-13T14:02:48.338Z,103758.50
2023-02-13T14:05:33.374Z,103753.31
2023-02-13T14:08:03.855Z,103756.75
2023-02-13T14:10:30.279Z,103750.03
2023-02-13T14:12:56.773Z,103747.47
2023-02-13T14:15:38.221Z,103752.50
2023-02-13T14:18:13.727Z,103743.75
2023-02-13T14:20:43.245Z,103739.41
2023-02-13T14:23:50.201Z,103747.00
2023-02-13T14:26:16.793Z,103742.69
2023-02-13T14:28:49.325Z,103744.34
2023-02-13T14:31:27.889Z,103739.13
2023-02-13T14:33:58.766Z,103742.44
2023-02-13T14:36:38.059Z,103742.41
2023-02-13T14:39:08.517Z,103743.25
2023-02-13T14:41:54.206Z,103745.75
2023-02-13T14:44:45.387Z,103741.41
2023-02-13T14:47:20.649Z,103733.66
2023-02-13T14:49:49.221Z,103730.19
2023-02-13T14:52:18.032Z,103736.09
2023-02-13T14:54:52.578Z,103733.50
2023-02-13T14:57:24.927Z,103725.72
2023-02-13T14:59:59.609Z,103735.16
2023-02-13T15:02:29.913Z,103727.44
2023-02-13T15:05:01.550Z,103726.53
2023-02-13T15:07:31.312Z,103729.84
2023-02-13T15:10:02.456Z,103731.47
2023-02-13T15:12:32.021Z,103735.66
2023-02-13T15:15:01.611Z,103731.66
2023-02-13T15:17:32.791Z,103725.13
2023-02-13T15:20:17.533Z,103731.28
2023-02-13T15:22:47.015Z,103724.47
2023-02-13T15:25:34.766Z,103728.97
2023-02-13T15:28:04.174Z,103728.91
2023-02-13T15:30:33.064Z,103731.19
2023-02-13T15:33:03.126Z,103723.22
2023-02-13T15:35:33.001Z,103723.03
2023-02-13T15:38:00.609Z,103716.91
2023-02-13T15:40:36.163Z,103721.91
2023-02-13T15:43:03.125Z,103715.94
2023-02-13T15:45:30.432Z,103715.41
2023-02-13T15:47:57.336Z,103722.31
2023-02-13T15:50:32.007Z,103712.66
2023-02-13T15:53:00.884Z,103716.66
2023-02-13T15:55:31.038Z,103716.44
2023-02-13T15:58:00.299Z,103714.53
2023-02-13T16:00:42.447Z,103710.94
2023-02-13T16:03:17.317Z,103710.81
2023-02-13T16:05:46.554Z,103714.13
2023-02-13T16:08:36.202Z,103726.84
2023-02-13T16:11:37.547Z,103717.28
2023-02-13T16:14:21.550Z,103725.75
2023-02-13T16:17:12.981Z,103719.66
2023-02-13T16:19:51.611Z,103720.38
2023-02-13T16:22:26.219Z,103721.94
2023-02-13T16:25:01.532Z,103720.97
2023-02-13T16:27:29.823Z,103711.44
2023-02-13T16:30:02.208Z,103715.59
2023-02-13T16:32:33.864Z,103718.94
2023-02-13T16:35:27.624Z,103722.19
2023-02-13T16:38:03.177Z,103724.63
2023-02-13T16:40:38.738Z,103718.56
2023-02-13T16:43:36.361Z,103717.56
2023-02-13T16:46:15.227Z,103723.38
2023-02-13T16:48:44.009Z,103719.03
2023-02-13T16:51:11.511Z,103722.31
2023-02-13T16:53:39.653Z,103720.53
2023-02-13T16:56:09.170Z,103714.38
2023-02-13T16:58:35.981Z,103719.41
2023-02-13T17:01:04.716Z,103722.59
2023-02-13T17:03:34.395Z,103720.78
2023-02-13T17:06:04.354Z,103729.16
2023-02-13T17:08:31.863Z,103730.66
2023-02-13T17:11:06.953Z,103733.88
2023-02-13T17:13:34.212Z,103734.63
2023-02-13T17:16:00.735Z,103737.03
2023-02-13T17:18:27.873Z,103734.25
2023-02-13T17:20:54.925Z,103742.50
2023-02-13T17:23:24.049Z,103739.72
2023-02-13T17:25:52.660Z,103736.19
2023-02-13T17:28:24.984Z,103740.19
2023-02-13T17:30:56.337Z,103744.06
2023-02-13T17:33:26.083Z,103742.88
2023-02-13T17:35:53.435Z,103740.94
2023-02-13T17:38:20.877Z,103741.50
2023-02-13T17:40:47.642Z,103737.56
2023-02-13T17:43:16.640Z,103736.44
2023-02-13T17:45:43.699Z,103739.56
2023-02-13T17:48:10.224Z,103734.19
2023-02-13T17:50:37.638Z,103746.81
2023-02-13T17:53:24.170Z,103740.63
2023-02-13T17:55:51.076Z,103742.09
2023-02-13T17:58:17.683Z,103741.81
2023-02-13T18:00:44.503Z,103737.44
2023-02-13T18:03:13.441Z,103745.88
2023-02-13T18:05:40.943Z,103734.63
2023-02-13T18:08:08.077Z,103740.19
2023-02-13T18:10:37.352Z,103735.78
2023-02-13T18:13:04.809Z,103729.66
2023-02-13T18:15:33.687Z,103737.88
2023-02-13T18:18:00.735Z,103739.31
2023-02-13T18:20:27.286Z,103734.13
2023-02-13T18:22:54.015Z,103739.19
2023-02-13T18:25:21.461Z,103740.53
2023-02-13T18:27:48.372Z,103748.75
2023-02-13T18:30:18.612Z,103747.75
2023-02-13T18:32:46.077Z,103751.81
2023-02-13T18:35:12.685Z,103750.72
2023-02-13T18:37:39.417Z,103745.38
2023-02-13T18:40:08.169Z,103737.47
2023-02-13T18:42:36.010Z,103735.63
2023-02-13T18:45:03.095Z,103740.50
2023-02-13T18:47:29.608Z,103743.59
2023-02-13T18:49:56.224Z,103742.63
2023-02-13T18:52:22.851Z,103740.78
2023-02-13T18:54:49.456Z,103742.34
2023-02-13T18:57:15.970Z,103741.34
2023-02-13T18:59:42.494Z,103743.69
2023-02-13T19:02:10.034Z,103742.50
2023-02-13T19:04:36.679Z,103747.38
2023-02-13T19:07:03.188Z,103739.69
2023-02-13T19:09:29.744Z,103738.69
2023-02-13T19:11:56.360Z,103742.03
2023-02-13T19:14:24.209Z,103733.56
2023-02-13T19:16:52.223Z,103731.81
2023-02-13T19:19:18.893Z,103725.78
2023-02-13T19:21:45.536Z,103728.19
2023-02-13T19:24:15.437Z,103732.19
2023-02-13T19:26:42.971Z,103719.06
2023-02-13T19:29:09.553Z,103720.38
2023-02-13T19:31:36.520Z,103727.63
2023-02-13T19:34:05.637Z,103724.78
2023-02-13T19:36:32.566Z,103724.47
2023-02-13T19:39:02.830Z,103723.47
2023-02-13T19:41:30.111Z,103728.28
2023-02-13T19:43:56.757Z,103734.09
2023-02-13T19:46:25.902Z,103729.88
2023-02-13T19:48:52.846Z,103734.91
2023-02-13T19:51:25.498Z,103724.69
2023-02-13T19:54:00.444Z,103733.06
2023-02-13T19:56:28.595Z,103732.78
2023-02-13T19:58:55.707Z,103736.00
2023-02-13T20:01:24.658Z,103738.38
2023-02-13T20:03:51.395Z,103738.16
2023-02-13T20:06:30.533Z,103732.25
2023-02-13T20:08:58.802Z,103735.63
2023-02-13T20:11:25.659Z,103743.03
2023-02-13T20:13:57.405Z,103741.06
2023-02-13T20:16:24.449Z,103741.81
2023-02-13T20:18:51.233Z,103738.34
2023-02-13T20:21:19.152Z,103745.81
2023-02-13T20:23:51.205Z,103746.44
2023-02-13T20:26:19.023Z,103739.44
2023-02-13T20:28:46.688Z,103741.59
2023-02-13T20:31:19.122Z,103747.16
2023-02-13T20:33:46.622Z,103744.38
2023-02-13T20:36:16.123Z,103745.97
2023-02-13T20:38:43.728Z,103751.66
2023-02-13T20:41:19.183Z,103749.72
2023-02-13T20:43:46.292Z,103750.47
2023-02-13T20:46:13.234Z,103752.84
2023-02-13T20:48:40.657Z,103753.44
2023-02-13T20:51:11.615Z,103752.41
2023-02-13T20:53:39.704Z,103755.50
2023-02-13T20:56:07.801Z,103759.41
2023-02-13T20:58:34.575Z,103760.09
2023-02-13T21:01:10.368Z,103759.97
2023-02-13T21:03:38.568Z,103761.72
2023-02-13T21:06:06.344Z,103764.00
2023-02-13T21:08:32.903Z,103759.72
2023-02-13T21:11:04.433Z,103765.50
2023-02-13T21:13:32.927Z,103760.28
2023-02-13T21:16:05.839Z,103768.66
2023-02-13T21:18:32.432Z,103759.28
2023-02-13T21:20:59.596Z,103766.84
2023-02-13T21:23:26.693Z,103778.47
2023-02-13T21:25:53.237Z,103777.38
2023-02-13T21:28:20.906Z,103774.78
2023-02-13T21:30:48.271Z,103779.84
2023-02-13T21:33:15.316Z,103769.50
2023-02-13T21:35:42.003Z,103772.59
2023-02-13T21:38:08.928Z,103775.88
2023-02-13T21:40:38.562Z,103769.78
2023-02-13T21:43:05.398Z,103770.50
2023-02-13T21:45:35.060Z,103770.28
2023-02-13T21:48:01.573Z,103765.09
2023-02-13T21:50:28.121Z,103767.44
2023-02-13T21:52:54.812Z,103777.13
2023-02-13T21:55:21.337Z,103770.81
2023-02-13T21:57:47.930Z,103770.81
2023-02-13T22:00:15.615Z,103767.50
2023-02-13T22:02:42.300Z,103765.63
2023-02-13T22:05:19.069Z,103765.44
2023-02-13T22:08:04.242Z,103763.63
2023-02-13T22:10:30.746Z,103761.59
2023-02-13T22:13:03.187Z,103769.28
2023-02-13T22:15:29.950Z,103761.53
2023-02-13T22:17:56.509Z,103767.31
2023-02-13T22:20:23.187Z,103760.38
2023-02-13T22:22:50.016Z,103759.47
2023-02-13T22:25:16.705Z,103754.28
2023-02-13T22:27:47.704Z,103754.41
2023-02-13T22:30:15.465Z,103750.97
2023-02-13T22:32:42.512Z,103750.00
2023-02-13T22:35:09.747Z,103750.72
2023-02-13T22:37:37.129Z,103742.91
2023-02-13T22:40:05.418Z,103744.47
2023-02-13T22:42:32.293Z,103741.47
2023-02-13T22:44:58.814Z,103741.47
2023-02-13T22:47:25.387Z,103738.16
2023-02-13T22:49:51.858Z,103731.94
2023-02-13T22:52:19.546Z,103735.09
2023-02-13T22:54:46.206Z,103732.50
2023-02-13T22:57:12.736Z,103732.31
2023-02-13T22:59:40.244Z,103739.69
2023-02-13T23:02:07.300Z,103738.56
2023-02-13T23:04:33.839Z,103735.78
2023-02-13T23:07:00.402Z,103741.47
2023-02-13T23:09:27.086Z,103737.69
2023-02-13T23:12:12.409Z,103736.44
2023-02-13T23:14:39.110Z,103735.25
2023-02-13T23:17:24.296Z,103731.13
2023-02-13T23:19:50.930Z,103730.25
2023-02-13T23:22:17.550Z,103734.97
2023-02-13T23:24:44.091Z,103747.47
2023-02-13T23:27:10.672Z,103741.84
2023-02-13T23:29:38.654Z,103744.47
2023-02-13T23:32:05.411Z,103738.53
2023-02-13T23:34:34.896Z,103739.97
2023-02-13T23:37:01.538Z,103745.78
2023-02-13T23:39:28.097Z,103734.75
2023-02-13T23:41:54.757Z,103742.22
2023-02-13T23:44:21.251Z,103735.38
2023-02-13T23:46:47.903Z,103746.00
2023-02-13T23:49:14.552Z,103741.56
2023-02-13T23:51:41.486Z,103738.13
2023-02-13T23:54:08.115Z,103741.41
2023-02-13T23:56:34.787Z,103736.44
2023-02-13T23:59:01.328Z,103738.00
